createdAt,value
2018-09-27T00:02:08.312Z,100276.11
2018-09-27T00:04:39.205Z,100275.48
2018-09-27T00:07:10.119Z,100269.39
2018-09-27T00:09:40.911Z,100265.86
2018-09-27T00:12:12.596Z,100263.11
2018-09-27T00:14:43.375Z,100267.08
2018-09-27T00:17:14.915Z,100268.81
2018-09-27T00:19:45.770Z,100262.38
2018-09-27T00:22:16.608Z,100258.19
2018-09-27T00:24:47.500Z,100259.08
2018-09-27T00:27:18.904Z,100257.39
2018-09-27T00:29:49.809Z,100254.79
2018-09-27T00:32:20.733Z,100253.87
2018-09-27T00:34:51.463Z,100246.19
2018-09-27T00:37:22.316Z,100250.31
2018-09-27T00:39:53.135Z,100255.42
2018-09-27T00:42:23.917Z,100248.23
2018-09-27T00:44:54.651Z,100252.83
2018-09-27T00:47:25.611Z,100249.02
2018-09-27T00:49:57.366Z,100249.14
2018-09-27T00:52:28.640Z,100249.02
2018-09-27T00:54:59.341Z,100241.53
2018-09-27T00:57:30.143Z,100243.11
2018-09-27T01:00:00.804Z,100240.23
2018-09-27T01:02:31.569Z,100237.72
2018-09-27T01:05:02.223Z,100233.81
2018-09-27T01:07:33.938Z,100237.49
2018-09-27T01:10:04.414Z,100233.78
2018-09-27T01:12:34.746Z,100230.89
2018-09-27T01:15:05.099Z,100229.47
2018-09-27T01:17:35.596Z,100222.33
2018-09-27T01:20:05.937Z,100226.75
2018-09-27T01:22:36.357Z,100220.17
2018-09-27T01:25:07.003Z,100226.33
2018-09-27T01:27:37.529Z,100221.09
2018-09-27T01:30:08.775Z,100225.66
2018-09-27T01:32:39.221Z,100231.47
2018-09-27T01:35:09.712Z,100225.25
2018-09-27T01:37:40.054Z,100224.17
2018-09-27T01:40:10.423Z,100221.57
2018-09-27T01:42:40.968Z,100224.03
2018-09-27T01:45:11.372Z,100224.41
2018-09-27T01:47:41.826Z,100224.49
2018-09-27T01:50:12.136Z,100220.30
2018-09-27T01:52:42.388Z,100232.66
2018-09-27T01:55:13.558Z,100227.95
2018-09-27T01:57:43.891Z,100222.02
2018-09-27T02:00:14.267Z,100217.68
2018-09-27T02:02:44.636Z,100212.56
2018-09-27T02:05:14.927Z,100215.07
2018-09-27T02:07:45.175Z,100213.80
2018-09-27T02:10:15.570Z,100209.88
2018-09-27T02:12:46.012Z,100211.56
2018-09-27T02:15:16.412Z,100202.97
2018-09-27T02:17:46.854Z,100205.86
2018-09-27T02:20:17.237Z,100203.27
2018-09-27T02:22:47.563Z,100205.84
2018-09-27T02:25:17.954Z,100200.19
2018-09-27T02:27:48.218Z,100201.01
2018-09-27T02:30:18.511Z,100203.69
2018-09-27T02:32:48.975Z,100188.59
2018-09-27T02:35:19.257Z,100187.06
2018-09-27T02:37:50.459Z,100186.87
2018-09-27T02:40:20.805Z,100177.03
2018-09-27T02:42:51.332Z,100173.72
2018-09-27T02:45:21.707Z,100178.61
2018-09-27T02:47:52.006Z,100180.47
2018-09-27T02:50:22.443Z,100176.32
2018-09-27T02:52:53.105Z,100175.73
2018-09-27T02:55:23.357Z,100171.84
2018-09-27T02:57:53.908Z,100170.05
2018-09-27T03:00:24.296Z,100165.94
2018-09-27T03:02:54.882Z,100163.81
2018-09-27T03:05:25.488Z,100171.17
2018-09-27T03:07:55.834Z,100160.94
2018-09-27T03:10:26.167Z,100165.11
2018-09-27T03:12:56.463Z,100156.64
2018-09-27T03:15:26.825Z,100153.27
2018-09-27T03:17:57.359Z,100153.55
2018-09-27T03:20:27.678Z,100151.66
2018-09-27T03:22:58.139Z,100154.31
2018-09-27T03:25:28.416Z,100147.27
2018-09-27T03:27:59.008Z,100150.36
2018-09-27T03:30:29.256Z,100140.17
2018-09-27T03:32:59.696Z,100141.42
2018-09-27T03:35:30.170Z,100132.97
2018-09-27T03:38:00.702Z,100140.56
2018-09-27T03:40:31.119Z,100141.18
2018-09-27T03:43:01.664Z,100134.56
2018-09-27T03:45:32.109Z,100140.91
2018-09-27T03:48:02.537Z,100145.34
2018-09-27T03:50:32.898Z,100136.50
2018-09-27T03:53:03.349Z,100145.03
2018-09-27T03:55:33.667Z,100150.27
2018-09-27T03:58:03.953Z,100143.86
2018-09-27T04:00:34.249Z,100144.64
2018-09-27T04:03:04.800Z,100138.44
2018-09-27T04:05:35.293Z,100140.05
2018-09-27T04:08:05.832Z,100140.32
2018-09-27T04:10:36.307Z,100141.27
2018-09-27T04:13:06.852Z,100138.53
2018-09-27T04:15:37.289Z,100138.50
2018-09-27T04:18:07.662Z,100129.84
2018-09-27T04:20:43.340Z,100127.85
2018-09-27T04:23:13.654Z,100126.47
2018-09-27T04:25:44.032Z,100125.33
2018-09-27T04:28:14.578Z,100125.09
2018-09-27T04:30:45.096Z,100134.77
2018-09-27T04:33:15.759Z,100126.67
2018-09-27T04:35:46.217Z,100130.77
2018-09-27T04:38:16.559Z,100123.64
2018-09-27T04:40:47.003Z,100122.73
2018-09-27T04:43:17.375Z,100116.63
2018-09-27T04:45:47.812Z,100118.25
2018-09-27T04:48:18.296Z,100114.15
2018-09-27T04:50:48.682Z,100110.73
2018-09-27T04:53:19.020Z,100104.61
2018-09-27T04:55:49.394Z,100101.90
2018-09-27T04:58:19.833Z,100102.13
2018-09-27T05:00:50.326Z,100096.41
2018-09-27T05:03:20.850Z,100106.66
2018-09-27T05:05:51.353Z,100104.73
2018-09-27T05:08:22.053Z,100109.36
2018-09-27T05:10:52.519Z,100113.56
2018-09-27T05:13:22.798Z,100108.92
2018-09-27T05:15:53.390Z,100102.39
2018-09-27T05:18:23.843Z,100113.56
2018-09-27T05:20:54.420Z,100115.01
2018-09-27T05:23:24.869Z,100125.12
2018-09-27T05:25:55.402Z,100120.33
2018-09-27T05:28:25.747Z,100118.08
2018-09-27T05:30:56.346Z,100116.72
2018-09-27T05:33:26.810Z,100112.70
2018-09-27T05:35:57.323Z,100116.91
2018-09-27T05:38:28.426Z,100114.21
2018-09-27T05:40:59.035Z,100108.66
2018-09-27T05:43:29.470Z,100108.06
2018-09-27T05:46:00.031Z,100100.18
2018-09-27T05:48:31.258Z,100111.56
2018-09-27T05:51:02.321Z,100110.86
2018-09-27T05:53:33.090Z,100114.77
2018-09-27T05:56:03.674Z,100120.70
2018-09-27T05:58:34.186Z,100112.68
2018-09-27T06:01:04.909Z,100121.55
2018-09-27T06:03:35.646Z,100113.91
2018-09-27T06:06:06.530Z,100118.50
2018-09-27T06:08:37.020Z,100115.27
2018-09-27T06:11:07.460Z,100111.50
2018-09-27T06:13:38.349Z,100107.80
2018-09-27T06:16:09.762Z,100113.42
2018-09-27T06:18:40.347Z,100118.16
2018-09-27T06:21:10.901Z,100115.06
2018-09-27T06:23:41.411Z,100123.87
2018-09-27T06:26:33.339Z,100128.11
2018-09-27T06:29:03.875Z,100126.20
2018-09-27T06:31:34.315Z,100129.94
2018-09-27T06:34:04.850Z,100123.42
2018-09-27T06:36:35.436Z,100126.80
2018-09-27T06:39:08.202Z,100123.52
2018-09-27T06:41:38.903Z,100115.73
2018-09-27T06:44:09.993Z,100118.36
2018-09-27T06:46:41.366Z,100118.89
2018-09-27T06:49:12.130Z,100115.91
2018-09-27T06:51:42.566Z,100113.66
2018-09-27T06:54:13.109Z,100111.66
2018-09-27T06:56:43.973Z,100109.08
2018-09-27T06:59:14.592Z,100108.00
2018-09-27T07:01:45.379Z,100107.39
2018-09-27T07:04:16.084Z,100107.19
2018-09-27T07:06:47.387Z,100101.86
2018-09-27T07:09:17.990Z,100098.34
2018-09-27T07:11:48.792Z,100103.45
2018-09-27T07:14:19.409Z,100101.97
2018-09-27T07:16:49.966Z,100097.13
2018-09-27T07:19:20.505Z,100089.29
2018-09-27T07:21:50.903Z,100085.41
2018-09-27T07:24:21.419Z,100093.36
2018-09-27T07:26:52.099Z,100092.97
2018-09-27T07:29:22.872Z,100092.02
2018-09-27T07:31:53.486Z,100089.48
2018-09-27T07:34:24.145Z,100084.46
2018-09-27T07:36:54.531Z,100082.62
2018-09-27T07:39:25.009Z,100087.52
2018-09-27T07:41:55.560Z,100079.12
2018-09-27T07:44:26.064Z,100081.63
2018-09-27T07:46:56.417Z,100084.67
2018-09-27T07:49:27.160Z,100081.09
2018-09-27T07:51:57.579Z,100077.36
2018-09-27T07:54:28.179Z,100079.96
2018-09-27T07:56:58.683Z,100079.95
2018-09-27T07:59:29.194Z,100075.33
2018-09-27T08:01:59.571Z,100078.77
2018-09-27T08:04:30.101Z,100074.97
2018-09-27T08:07:00.794Z,100070.00
2018-09-27T08:09:31.534Z,100076.04
2018-09-27T08:12:02.153Z,100073.08
2018-09-27T08:14:33.382Z,100067.22
2018-09-27T08:17:03.963Z,100064.34
2018-09-27T08:19:34.562Z,100062.50
2018-09-27T08:22:06.461Z,100059.01
2018-09-27T08:24:37.156Z,100051.50
2018-09-27T08:27:08.048Z,100053.75
2018-09-27T08:29:38.823Z,100048.70
2018-09-27T08:32:09.749Z,100047.15
2018-09-27T08:34:40.184Z,100040.14
2018-09-27T08:37:11.002Z,100036.54
2018-09-27T08:39:41.606Z,100031.78
2018-09-27T08:42:12.710Z,100036.37
2018-09-27T08:44:43.449Z,100035.58
2018-09-27T08:47:14.034Z,100037.17
2018-09-27T08:49:45.847Z,100034.03
2018-09-27T08:52:16.288Z,100030.74
2018-09-27T08:54:47.665Z,100032.61
2018-09-27T08:57:18.404Z,100028.56
2018-09-27T08:59:49.077Z,100033.60
2018-09-27T09:02:20.221Z,100023.37
2018-09-27T09:04:50.633Z,100028.46
2018-09-27T09:07:22.182Z,100027.33
2018-09-27T09:09:52.962Z,100023.71
2018-09-27T09:12:24.031Z,100022.89
2018-09-27T09:14:55.129Z,100019.80
2018-09-27T09:17:26.096Z,100022.17
2018-09-27T09:19:56.981Z,100019.92
2018-09-27T09:22:28.239Z,100015.12
2018-09-27T09:24:58.853Z,100022.37
2018-09-27T09:27:29.592Z,100012.83
2018-09-27T09:30:00.068Z,100018.44
2018-09-27T09:32:30.584Z,100014.17
2018-09-27T09:35:01.371Z,100019.69
2018-09-27T09:37:32.278Z,100013.34
2018-09-27T09:40:02.791Z,100011.53
2018-09-27T09:42:33.622Z,100009.52
2018-09-27T09:45:04.393Z,100006.99
2018-09-27T09:47:35.054Z,99996.49
2018-09-27T09:50:06.480Z,99999.09
2018-09-27T09:52:37.763Z,99991.72
2018-09-27T09:55:08.892Z,99997.19
2018-09-27T09:57:39.624Z,99985.83
2018-09-27T10:00:10.598Z,99981.76
2018-09-27T10:02:41.302Z,99978.23
2018-09-27T10:05:11.846Z,99972.61
2018-09-27T10:07:42.727Z,99967.44
2018-09-27T10:10:13.278Z,99964.95
2018-09-27T10:12:43.759Z,99961.66
2018-09-27T10:15:14.416Z,99963.08
2018-09-27T10:17:45.093Z,99958.42
2018-09-27T10:20:15.571Z,99950.98
2018-09-27T10:22:46.111Z,99948.83
2018-09-27T10:25:16.805Z,99945.22
2018-09-27T10:27:47.412Z,99933.02
2018-09-27T10:30:17.977Z,99929.63
2018-09-27T10:32:48.397Z,99923.59
2018-09-27T10:35:18.867Z,99925.77
2018-09-27T10:37:50.022Z,99926.86
2018-09-27T10:40:21.095Z,99927.25
2018-09-27T10:42:51.857Z,99928.48
2018-09-27T10:45:22.736Z,99917.68
2018-09-27T10:47:53.211Z,99910.79
2018-09-27T10:50:24.646Z,99905.95
2018-09-27T10:52:55.853Z,99906.89
2018-09-27T10:55:26.552Z,99906.98
2018-09-27T10:57:57.486Z,99908.25
2018-09-27T11:00:27.947Z,99903.63
2018-09-27T11:02:58.637Z,99892.64
2018-09-27T11:05:29.084Z,99892.33
2018-09-27T11:07:59.748Z,99884.80
2018-09-27T11:10:30.464Z,99886.84
2018-09-27T11:13:01.136Z,99875.44
2018-09-27T11:15:31.845Z,99866.61
2018-09-27T11:18:03.604Z,99870.11
2018-09-27T11:20:34.152Z,99865.05
2018-09-27T11:23:05.409Z,99858.53
2018-09-27T11:25:37.389Z,99851.65
2018-09-27T11:28:08.573Z,99847.41
2018-09-27T11:30:39.370Z,99839.54
2018-09-27T11:33:10.415Z,99838.71
2018-09-27T11:35:40.883Z,99830.41
2018-09-27T11:38:11.591Z,99827.19
2018-09-27T11:40:42.096Z,99822.20
2018-09-27T11:43:12.847Z,99814.28
2018-09-27T11:45:43.541Z,99814.62
2018-09-27T11:48:14.079Z,99803.31
2018-09-27T11:50:44.812Z,99806.97
2018-09-27T11:53:16.265Z,99805.91
2018-09-27T11:55:47.676Z,99795.13
2018-09-27T11:58:18.384Z,99794.64
2018-09-27T12:00:49.654Z,99788.67
2018-09-27T12:03:20.372Z,99787.86
2018-09-27T12:05:52.151Z,99781.13
2018-09-27T12:08:23.201Z,99774.20
2018-09-27T12:10:55.344Z,99757.87
2018-09-27T12:13:26.748Z,99752.63
2018-09-27T12:15:58.141Z,99745.91
2018-09-27T12:18:29.248Z,99747.31
2018-09-27T12:21:00.098Z,99747.47
2018-09-27T12:23:32.680Z,99742.93
2018-09-27T12:26:04.679Z,99737.06
2018-09-27T12:28:42.303Z,99732.70
2018-09-27T12:31:16.918Z,99730.65
2018-09-27T12:34:02.655Z,99730.22
2018-09-27T12:36:35.796Z,99719.02
2018-09-27T12:39:11.025Z,99717.77
2018-09-27T12:41:44.179Z,99720.90
2018-09-27T12:44:15.057Z,99719.28
2018-09-27T12:46:46.539Z,99720.91
2018-09-27T12:49:17.282Z,99717.66
2018-09-27T12:51:49.920Z,99711.63
2018-09-27T12:54:20.703Z,99710.48
2018-09-27T12:56:51.618Z,99708.46
2018-09-27T12:59:23.437Z,99703.61
2018-09-27T13:01:55.575Z,99701.09
2018-09-27T13:04:29.004Z,99690.67
2018-09-27T13:07:01.305Z,99683.28
2018-09-27T13:09:33.467Z,99686.63
2018-09-27T13:12:05.846Z,99685.00
2018-09-27T13:14:36.605Z,99681.58
2018-09-27T13:17:07.311Z,99675.95
2018-09-27T13:19:38.497Z,99668.28
2018-09-27T13:22:09.365Z,99679.64
2018-09-27T13:24:39.952Z,99670.47
2018-09-27T13:27:10.631Z,99671.47
2018-09-27T13:29:41.617Z,99669.58
2018-09-27T13:32:15.576Z,99659.83
2018-09-27T13:34:47.230Z,99657.88
2018-09-27T13:37:19.590Z,99659.95
2018-09-27T13:39:50.394Z,99659.51
2018-09-27T13:42:21.332Z,99646.70
2018-09-27T13:44:52.801Z,99643.86
2018-09-27T13:47:24.352Z,99643.27
2018-09-27T13:49:58.827Z,99639.97
2018-09-27T13:52:29.944Z,99632.30
2018-09-27T13:55:02.580Z,99636.06
2018-09-27T13:57:34.090Z,99636.12
2018-09-27T14:00:04.779Z,99632.31
2018-09-27T14:02:35.837Z,99633.47
2018-09-27T14:05:07.157Z,99631.31
2018-09-27T14:07:37.902Z,99625.61
2018-09-27T14:10:08.804Z,99612.83
2018-09-27T14:12:39.659Z,99612.37
2018-09-27T14:15:10.852Z,99612.42
2018-09-27T14:17:41.626Z,99609.32
2018-09-27T14:20:12.276Z,99605.55
2018-09-27T14:22:44.128Z,99591.53
2018-09-27T14:25:16.399Z,99598.13
2018-09-27T14:27:48.231Z,99590.61
2018-09-27T14:30:21.383Z,99595.04
2018-09-27T14:32:55.334Z,99585.58
2018-09-27T14:35:28.056Z,99576.94
2018-09-27T14:38:00.403Z,99576.14
2018-09-27T14:40:32.026Z,99573.48
2018-09-27T14:43:04.425Z,99569.34
2018-09-27T14:45:36.166Z,99571.25
2018-09-27T14:48:09.095Z,99572.22
2018-09-27T14:50:41.872Z,99569.06
2018-09-27T14:53:13.633Z,99564.03
2018-09-27T14:55:50.061Z,99558.77
2018-09-27T14:58:21.410Z,99552.67
2018-09-27T15:00:59.473Z,99556.09
2018-09-27T15:03:33.018Z,99557.39
2018-09-27T15:06:04.994Z,99548.71
2018-09-27T15:08:35.737Z,99549.98
2018-09-27T15:11:06.549Z,99545.63
2018-09-27T15:13:37.242Z,99540.02
2018-09-27T15:16:07.784Z,99547.04
2018-09-27T15:18:39.151Z,99541.45
2018-09-27T15:21:09.825Z,99536.70
2018-09-27T15:23:40.439Z,99522.05
2018-09-27T15:26:11.069Z,99531.66
2018-09-27T15:28:41.711Z,99536.94
2018-09-27T15:31:12.803Z,99524.71
2018-09-27T15:33:43.771Z,99517.80
2018-09-27T15:36:15.015Z,99521.22
2018-09-27T15:38:46.314Z,99525.77
2018-09-27T15:41:16.883Z,99519.11
2018-09-27T15:43:47.763Z,99521.87
2018-09-27T15:46:18.609Z,99520.17
2018-09-27T15:48:49.336Z,99513.45
2018-09-27T15:51:20.150Z,99511.58
2018-09-27T15:53:50.936Z,99501.59
2018-09-27T15:56:21.458Z,99495.98
2018-09-27T15:58:52.952Z,99498.99
2018-09-27T16:01:23.513Z,99490.27
2018-09-27T16:03:54.078Z,99491.64
2018-09-27T16:06:24.747Z,99498.86
2018-09-27T16:08:55.462Z,99495.32
2018-09-27T16:11:25.923Z,99492.23
2018-09-27T16:13:56.619Z,99491.86
2018-09-27T16:16:27.105Z,99484.61
2018-09-27T16:18:57.799Z,99486.06
2018-09-27T16:21:28.453Z,99481.22
2018-09-27T16:23:59.156Z,99476.30
2018-09-27T16:26:29.866Z,99469.58
2018-09-27T16:29:00.324Z,99465.78
2018-09-27T16:31:31.092Z,99466.73
2018-09-27T16:34:01.491Z,99450.95
2018-09-27T16:36:33.036Z,99446.31
2018-09-27T16:39:05.692Z,99440.67
2018-09-27T16:41:36.532Z,99443.50
2018-09-27T16:44:07.610Z,99446.52
2018-09-27T16:46:38.622Z,99445.48
2018-09-27T16:49:09.510Z,99445.97
2018-09-27T16:51:40.720Z,99445.71
2018-09-27T16:54:11.508Z,99443.45
2018-09-27T16:56:42.201Z,99442.84
2018-09-27T16:59:13.803Z,99445.19
2018-09-27T17:01:44.875Z,99451.21
2018-09-27T17:04:16.834Z,99444.23
2018-09-27T17:06:47.543Z,99439.59
2018-09-27T17:09:18.702Z,99437.25
2018-09-27T17:11:49.553Z,99441.55
2018-09-27T17:14:20.631Z,99443.86
2018-09-27T17:16:51.519Z,99441.49
2018-09-27T17:19:23.266Z,99438.80
2018-09-27T17:21:54.919Z,99435.44
2018-09-27T17:24:25.892Z,99436.50
2018-09-27T17:26:57.126Z,99442.55
2018-09-27T17:29:28.562Z,99439.60
2018-09-27T17:31:59.408Z,99437.31
2018-09-27T17:34:30.241Z,99441.16
2018-09-27T17:37:01.510Z,99448.68
2018-09-27T17:39:32.504Z,99442.11
2018-09-27T17:42:03.832Z,99443.70
2018-09-27T17:44:34.486Z,99435.28
2018-09-27T17:47:06.062Z,99443.50
2018-09-27T17:49:38.798Z,99440.77
2018-09-27T17:52:11.281Z,99443.36
2018-09-27T17:54:42.925Z,99442.13
2018-09-27T17:57:14.732Z,99429.89
2018-09-27T17:59:46.607Z,99434.53
2018-09-27T18:02:18.332Z,99440.55
2018-09-27T18:04:49.318Z,99443.59
2018-09-27T18:07:20.411Z,99442.41
2018-09-27T18:09:51.505Z,99444.16
2018-09-27T18:12:22.358Z,99432.25
2018-09-27T18:14:53.465Z,99445.59
2018-09-27T18:17:25.479Z,99445.34
2018-09-27T18:19:58.010Z,99440.42
2018-09-27T18:22:30.911Z,99435.20
2018-09-27T18:25:01.826Z,99440.62
2018-09-27T18:27:34.748Z,99439.87
2018-09-27T18:30:05.655Z,99443.80
2018-09-27T18:32:36.656Z,99445.58
2018-09-27T18:35:07.436Z,99440.59
2018-09-27T18:37:40.653Z,99436.30
2018-09-27T18:40:12.132Z,99440.41
2018-09-27T18:42:43.059Z,99442.67
2018-09-27T18:45:16.004Z,99441.66
2018-09-27T18:47:47.553Z,99440.48
2018-09-27T18:50:19.063Z,99444.50
2018-09-27T18:52:50.525Z,99443.08
2018-09-27T18:55:21.550Z,99444.59
2018-09-27T18:57:52.380Z,99444.91
2018-09-27T19:00:23.768Z,99445.45
2018-09-27T19:02:54.618Z,99445.34
2018-09-27T19:05:25.778Z,99450.27
2018-09-27T19:07:56.539Z,99453.03
2018-09-27T19:10:27.309Z,99448.91
2018-09-27T19:12:57.939Z,99450.03
2018-09-27T19:15:28.804Z,99446.19
2018-09-27T19:17:59.589Z,99443.56
2018-09-27T19:20:30.236Z,99445.83
2018-09-27T19:23:01.351Z,99448.23
2018-09-27T19:25:33.549Z,99452.66
2018-09-27T19:28:04.615Z,99454.20
2018-09-27T19:30:36.717Z,99449.16
2018-09-27T19:33:07.661Z,99450.22
2018-09-27T19:35:39.107Z,99453.09
2018-09-27T19:38:10.172Z,99447.81
2018-09-27T19:40:41.099Z,99458.13
2018-09-27T19:43:12.221Z,99448.81
2018-09-27T19:45:43.428Z,99447.16
2018-09-27T19:48:14.847Z,99446.09
2018-09-27T19:50:46.408Z,99438.05
2018-09-27T19:53:17.636Z,99443.20
2018-09-27T19:55:49.718Z,99437.42
2018-09-27T19:58:20.689Z,99447.91
2018-09-27T20:00:51.663Z,99449.90
2018-09-27T20:03:22.558Z,99450.20
2018-09-27T20:05:53.587Z,99444.94
2018-09-27T20:08:26.382Z,99439.92
2018-09-27T20:11:00.865Z,99443.16
2018-09-27T20:13:37.708Z,99448.33
2018-09-27T20:16:08.966Z,99447.11
2018-09-27T20:18:40.924Z,99452.87
2018-09-27T20:21:11.701Z,99447.57
2018-09-27T20:23:42.360Z,99449.25
2018-09-27T20:26:14.848Z,99448.62
2018-09-27T20:28:45.728Z,99452.79
2018-09-27T20:31:17.657Z,99455.02
2018-09-27T20:33:49.378Z,99456.09
2018-09-27T20:36:20.152Z,99451.55
2018-09-27T20:38:50.852Z,99465.52
2018-09-27T20:41:21.546Z,99454.20
2018-09-27T20:43:52.371Z,99471.53
2018-09-27T20:46:23.232Z,99460.83
2018-09-27T20:48:53.891Z,99468.70
2018-09-27T20:51:24.712Z,99460.66
2018-09-27T20:53:56.826Z,99457.77
2018-09-27T20:56:27.550Z,99460.32
2018-09-27T20:58:58.139Z,99450.17
2018-09-27T21:01:28.922Z,99442.27
2018-09-27T21:03:59.524Z,99446.47
2018-09-27T21:06:30.042Z,99460.04
2018-09-27T21:09:00.608Z,99454.81
2018-09-27T21:11:31.232Z,99459.19
2018-09-27T21:14:01.940Z,99456.69
2018-09-27T21:16:32.554Z,99455.26
2018-09-27T21:19:03.454Z,99447.41
2018-09-27T21:21:34.059Z,99459.45
2018-09-27T21:24:04.950Z,99458.17
2018-09-27T21:26:35.775Z,99457.03
2018-09-27T21:29:06.455Z,99456.42
2018-09-27T21:31:38.160Z,99453.31
2018-09-27T21:34:08.949Z,99455.11
2018-09-27T21:36:41.389Z,99458.81
2018-09-27T21:39:11.978Z,99455.16
2018-09-27T21:41:42.558Z,99459.63
2018-09-27T21:44:13.087Z,99466.52
2018-09-27T21:46:43.694Z,99457.23
2018-09-27T21:49:14.401Z,99466.52
2018-09-27T21:51:45.071Z,99466.79
2018-09-27T21:54:15.569Z,99466.21
2018-09-27T21:56:46.219Z,99462.31
2018-09-27T21:59:16.955Z,99455.45
2018-09-27T22:01:48.738Z,99455.77
2018-09-27T22:04:19.181Z,99455.77
2018-09-27T22:06:50.773Z,99454.45
2018-09-27T22:09:21.455Z,99453.20
2018-09-27T22:11:52.048Z,99453.34
2018-09-27T22:14:22.504Z,99444.73
2018-09-27T22:16:53.012Z,99445.72
2018-09-27T22:19:23.611Z,99443.88
2018-09-27T22:21:54.055Z,99439.34
2018-09-27T22:24:25.098Z,99437.87
2018-09-27T22:26:55.640Z,99442.52
2018-09-27T22:29:26.185Z,99439.38
2018-09-27T22:31:56.723Z,99436.20
2018-09-27T22:34:27.442Z,99432.55
2018-09-27T22:36:57.977Z,99430.05
2018-09-27T22:39:28.693Z,99428.80
2018-09-27T22:41:59.291Z,99424.88
2018-09-27T22:44:29.928Z,99417.31
2018-09-27T22:47:00.482Z,99415.47
2018-09-27T22:49:31.146Z,99416.28
2018-09-27T22:52:01.730Z,99416.11
2018-09-27T22:54:32.736Z,99417.70
2018-09-27T22:57:03.291Z,99406.88
2018-09-27T22:59:35.963Z,99408.86
2018-09-27T23:02:06.505Z,99410.94
2018-09-27T23:04:37.093Z,99405.52
2018-09-27T23:07:07.784Z,99408.81
2018-09-27T23:09:38.319Z,99412.63
2018-09-27T23:12:08.904Z,99409.08
2018-09-27T23:14:39.687Z,99407.95
2018-09-27T23:17:10.406Z,99413.58
2018-09-27T23:19:40.850Z,99411.59
2018-09-27T23:22:11.537Z,99414.48
2018-09-27T23:24:42.136Z,99406.76
2018-09-27T23:27:12.444Z,99402.88
2018-09-27T23:29:42.951Z,99399.33
2018-09-27T23:32:13.523Z,99396.94
2018-09-27T23:34:44.109Z,99390.34
2018-09-27T23:37:14.611Z,99389.28
2018-09-27T23:39:45.068Z,99390.70
2018-09-27T23:42:15.576Z,99388.18
2018-09-27T23:44:46.200Z,99387.23
2018-09-27T23:47:16.622Z,99383.23
2018-09-27T23:49:47.119Z,99383.41
2018-09-27T23:52:17.667Z,99376.95
2018-09-27T23:54:48.187Z,99376.75
2018-09-27T23:57:18.664Z,99377.67
2018-09-27T23:59:49.313Z,99366.84
